Time;durP1;ratioP1;P1;durP2;ratioP2;P2;SDS_P1;SDS_P2;PMS_P1;PMS_P2;Temp;Humidity;BMP_temperature;BMP_pressure;BME280_temperature;BME280_humidity;BME280_pressure;Samples;Min_cycle;Max_cycle;Signal;HPM_P1;HPM_P2
2023/07/10 00:00:51;;;;;;;8.17;7.33;;;25.20;90.50;;;;;;5047015;28;20692;-81
2023/07/10 00:03:18;;;;;;;9.70;7.43;;;25.20;90.70;;;;;;5047671;28;20432;-80
2023/07/10 00:05:44;;;;;;;8.20;7.50;;;25.10;90.70;;;;;;5064955;28;20446;-81
2023/07/10 00:08:09;;;;;;;8.67;7.87;;;25.00;90.80;;;;;;5047457;28;20447;-75
2023/07/10 00:10:35;;;;;;;8.80;7.57;;;25.00;90.90;;;;;;5065046;28;20256;-80
2023/07/10 00:13:01;;;;;;;10.37;6.60;;;24.90;91.00;;;;;;5047269;28;20184;-77
2023/07/10 00:15:27;;;;;;;8.20;7.40;;;24.90;90.90;;;;;;5047181;28;20657;-81
2023/07/10 00:17:53;;;;;;;7.60;6.90;;;24.90;90.90;;;;;;5047495;28;20703;-75
2023/07/10 00:20:24;;;;;;;7.67;6.97;;;24.80;90.90;;;;;;5065238;28;20445;-81
2023/07/10 00:22:50;;;;;;;10.23;6.90;;;24.80;90.90;;;;;;5047442;28;20187;-80
2023/07/10 00:25:17;;;;;;;11.87;7.47;;;24.80;91.00;;;;;;5065036;28;20471;-75
2023/07/10 00:27:48;;;;;;;7.83;7.10;;;24.70;90.90;;;;;;5047216;28;20516;-80
2023/07/10 00:30:20;;;;;;;8.90;7.30;;;24.70;90.90;;;;;;5065075;28;20421;-81
2023/07/10 00:32:47;;;;;;;7.70;7.00;;;24.70;91.00;;;;;;5046901;28;20421;-75
2023/07/10 00:35:16;;;;;;;6.77;6.17;;;24.60;90.90;;;;;;5064945;28;20524;-81
2023/07/10 00:37:46;;;;;;;8.70;7.23;;;24.60;90.90;;;;;;5065085;28;20468;-75
2023/07/10 00:40:20;;;;;;;7.10;6.40;;;24.60;91.00;;;;;;5065191;28;20545;-75
2023/07/10 00:42:47;;;;;;;7.60;6.80;;;24.50;90.90;;;;;;5065141;28;20741;-75
2023/07/10 00:45:15;;;;;;;7.50;6.70;;;24.50;90.90;;;;;;5064944;28;20433;-81
2023/07/10 00:47:47;;;;;;;9.67;7.20;;;24.60;90.90;;;;;;5050630;28;20587;-80
2023/07/10 00:50:36;;;;;;;7.57;6.80;;;24.50;90.90;;;;;;5050612;28;20436;-75
2023/07/10 00:53:10;;;;;;;7.40;6.80;;;24.40;91.00;;;;;;5068416;28;20414;-75
2023/07/10 00:55:39;;;;;;;8.30;7.60;;;24.40;91.00;;;;;;5046401;28;20981;-81
2023/07/10 00:58:13;;;;;;;7.57;6.83;;;24.40;91.10;;;;;;5046960;28;20492;-75
2023/07/10 01:00:57;;;;;;;9.10;7.33;;;24.40;91.10;;;;;;5046841;28;20433;-81
2023/07/10 01:03:25;;;;;;;8.57;6.97;;;24.40;91.10;;;;;;5048990;28;20793;-75
2023/07/10 01:05:51;;;;;;;7.93;7.13;;;24.30;91.10;;;;;;5048014;28;20446;-75
2023/07/10 01:08:16;;;;;;;7.37;6.67;;;24.30;91.20;;;;;;5048534;28;20483;-80
2023/07/10 01:10:42;;;;;;;7.17;6.67;;;24.30;91.30;;;;;;5048165;28;20203;-81
2023/07/10 01:13:08;;;;;;;10.20;7.17;;;24.20;91.30;;;;;;5048698;28;20190;-81
2023/07/10 01:15:34;;;;;;;8.43;7.60;;;24.20;91.40;;;;;;5046809;28;20441;-75
2023/07/10 01:17:59;;;;;;;7.60;6.90;;;24.20;91.40;;;;;;5046932;28;20287;-78
2023/07/10 01:20:28;;;;;;;7.93;7.30;;;24.20;91.50;;;;;;5047929;28;20195;-75
2023/07/10 01:22:54;;;;;;;9.37;7.03;;;24.20;91.60;;;;;;5046967;28;20180;-81
2023/07/10 01:25:20;;;;;;;9.93;7.33;;;24.20;91.70;;;;;;5046666;28;20501;-76
2023/07/10 01:27:45;;;;;;;7.57;6.87;;;24.20;91.70;;;;;;5048050;28;20188;-81
2023/07/10 01:30:31;;;;;;;9.67;6.90;;;24.10;91.80;;;;;;5047735;28;20311;-81
2023/07/10 01:32:58;;;;;;;11.10;7.60;;;24.10;91.80;;;;;;5048063;28;20543;-75
2023/07/10 01:35:27;;;;;;;8.90;7.50;;;24.10;92.00;;;;;;5047983;28;20735;-81
2023/07/10 01:37:53;;;;;;;8.57;6.87;;;24.00;92.10;;;;;;5048037;28;20460;-81
2023/07/10 01:40:24;;;;;;;7.67;6.97;;;24.00;92.10;;;;;;5047724;28;20713;-81
2023/07/10 01:42:50;;;;;;;8.70;7.87;;;24.10;92.20;;;;;;5046380;28;20180;-81
2023/07/10 01:45:16;;;;;;;9.20;7.73;;;24.00;92.20;;;;;;5046042;28;20970;-75
2023/07/10 01:47:41;;;;;;;8.40;7.60;;;24.00;92.30;;;;;;5047800;28;20203;-81
2023/07/10 01:50:08;;;;;;;9.33;7.60;;;24.00;92.40;;;;;;5045918;28;20204;-81
2023/07/10 01:52:33;;;;;;;8.07;7.37;;;24.00;92.50;;;;;;5048035;28;20171;-81
2023/07/10 01:54:59;;;;;;;6.93;6.33;;;24.00;92.50;;;;;;5044350;28;20758;-81
2023/07/10 01:57:25;;;;;;;8.83;7.77;;;23.90;92.60;;;;;;5047165;28;20309;-81
2023/07/10 01:59:52;;;;;;;7.23;6.60;;;23.90;92.70;;;;;;5045904;28;20200;-75
2023/07/10 02:02:18;;;;;;;9.03;8.13;;;23.80;92.80;;;;;;5047681;28;20630;-81
2023/07/10 02:04:44;;;;;;;8.33;7.63;;;23.80;93.00;;;;;;5046651;28;20432;-81
2023/07/10 02:07:10;;;;;;;7.63;6.93;;;23.80;93.00;;;;;;5046033;28;20845;-81
2023/07/10 02:09:35;;;;;;;9.93;8.10;;;23.80;93.10;;;;;;5047014;28;20431;-75
2023/07/10 02:12:02;;;;;;;8.27;7.40;;;23.80;93.10;;;;;;5047338;28;20191;-75
2023/07/10 02:14:29;;;;;;;10.43;8.20;;;23.90;93.20;;;;;;5045710;28;20226;-75
2023/07/10 02:16:54;;;;;;;8.43;7.43;;;23.90;93.20;;;;;;5045657;28;20428;-75
2023/07/10 02:19:20;;;;;;;8.50;7.80;;;23.90;93.20;;;;;;5047168;28;20499;-75
2023/07/10 02:21:47;;;;;;;8.80;8.00;;;23.90;93.30;;;;;;5045718;28;20580;-75
2023/07/10 02:24:12;;;;;;;11.13;7.90;;;23.80;93.30;;;;;;5046702;28;20420;-81
2023/07/10 02:26:38;;;;;;;9.33;8.43;;;23.80;93.80;;;;;;5046970;28;20443;-81
2023/07/10 02:29:04;;;;;;;8.23;7.43;;;23.70;93.60;;;;;;5047064;28;20242;-75
2023/07/10 02:31:30;;;;;;;8.50;7.80;;;23.70;93.70;;;;;;5045127;28;20219;-81
2023/07/10 02:33:56;;;;;;;8.70;7.77;;;23.60;93.80;;;;;;5046981;28;20458;-75
2023/07/10 02:36:23;;;;;;;8.70;7.60;;;23.60;93.90;;;;;;5046429;28;20512;-75
2023/07/10 02:38:49;;;;;;;13.90;8.13;;;23.60;94.00;;;;;;5046513;28;20818;-81
2023/07/10 02:41:15;;;;;;;8.37;7.57;;;23.60;94.10;;;;;;5044940;28;20447;-81
2023/07/10 02:43:41;;;;;;;19.27;9.33;;;23.50;94.30;;;;;;5045234;28;20685;-74
2023/07/10 02:46:06;;;;;;;11.43;8.90;;;23.50;94.30;;;;;;5044965;28;20293;-81
2023/07/10 02:48:32;;;;;;;10.00;8.57;;;23.50;94.40;;;;;;5045371;28;20186;-76
2023/07/10 02:50:58;;;;;;;8.20;7.20;;;23.50;94.40;;;;;;5044762;28;20293;-75
2023/07/10 02:53:23;;;;;;;8.80;8.00;;;23.50;94.50;;;;;;5044707;28;20175;-80
2023/07/10 02:55:49;;;;;;;7.80;7.00;;;23.50;94.60;;;;;;5064852;28;20239;-75
2023/07/10 02:58:15;;;;;;;9.43;8.50;;;23.50;94.60;;;;;;5064528;28;20203;-78
2023/07/10 03:00:41;;;;;;;13.77;7.87;;;23.40;94.70;;;;;;5065681;28;20206;-81
2023/07/10 03:03:07;;;;;;;8.63;7.83;;;23.50;94.80;;;;;;5066640;28;20786;-74
2023/07/10 03:05:33;;;;;;;9.10;8.17;;;23.40;94.90;;;;;;5065687;28;20207;-74
2023/07/10 03:07:58;;;;;;;8.90;7.70;;;23.40;95.00;;;;;;5065726;28;20255;-81
2023/07/10 03:10:24;;;;;;;10.27;8.57;;;23.40;95.30;;;;;;5065308;28;20274;-75
2023/07/10 03:12:50;;;;;;;9.17;8.40;;;23.50;94.90;;;;;;5065955;28;20266;-76
2023/07/10 03:15:16;;;;;;;8.60;7.73;;;23.60;95.10;;;;;;5047804;28;20508;-76
2023/07/10 03:17:42;;;;;;;9.37;8.57;;;23.70;94.70;;;;;;5065921;28;20203;-75
2023/07/10 03:20:10;;;;;;;8.50;7.80;;;23.80;94.70;;;;;;5065525;28;20808;-75
2023/07/10 03:22:36;;;;;;;11.40;7.40;;;23.80;94.60;;;;;;5047903;28;20428;-77
2023/07/10 03:25:01;;;;;;;10.37;7.83;;;23.90;94.50;;;;;;5065673;28;20530;-81
2023/07/10 03:27:27;;;;;;;8.10;7.40;;;24.00;94.50;;;;;;5047957;28;20186;-76
2023/07/10 03:29:53;;;;;;;8.97;7.40;;;24.00;94.40;;;;;;5047438;28;20562;-81
2023/07/10 03:32:19;;;;;;;9.53;8.50;;;24.10;94.40;;;;;;5047918;28;20187;-81
2023/07/10 03:34:45;;;;;;;9.23;7.80;;;24.10;94.40;;;;;;5047257;28;20440;-81
2023/07/10 03:37:10;;;;;;;9.23;8.37;;;24.20;94.40;;;;;;5046743;28;20817;-76
2023/07/10 03:39:36;;;;;;;10.97;8.73;;;24.20;94.30;;;;;;5047408;28;20339;-75
2023/07/10 03:42:03;;;;;;;8.77;7.70;;;24.30;94.30;;;;;;5047852;28;20329;-81
2023/07/10 03:44:28;;;;;;;9.10;7.60;;;24.30;94.30;;;;;;5065403;28;20179;-80
2023/07/10 03:46:56;;;;;;;9.47;7.90;;;24.30;94.30;;;;;;5065512;28;20412;-75
2023/07/10 03:49:22;;;;;;;10.00;9.00;;;24.40;94.30;;;;;;5065397;28;20250;-75
2023/07/10 03:51:48;;;;;;;10.77;8.90;;;24.40;94.20;;;;;;5065436;28;20460;-76
2023/07/10 03:54:14;;;;;;;8.60;7.80;;;24.40;94.20;;;;;;5064916;28;20229;-80
2023/07/10 03:56:40;;;;;;;8.90;8.00;;;24.40;94.70;;;;;;5046801;28;20750;-75
2023/07/10 03:59:08;;;;;;;9.10;8.20;;;24.40;94.60;;;;;;5046731;28;20468;-80
2023/07/10 04:01:34;;;;;;;14.10;8.30;;;24.30;94.70;;;;;;5065357;28;20203;-81
2023/07/10 04:03:59;;;;;;;8.60;7.80;;;24.20;95.10;;;;;;5065434;28;20568;-80
2023/07/10 04:06:25;;;;;;;10.70;8.10;;;24.10;95.20;;;;;;5064824;28;20471;-75
2023/07/10 04:08:51;;;;;;;10.00;7.93;;;24.10;95.30;;;;;;5047120;28;20681;-75
2023/07/10 04:11:19;;;;;;;10.00;8.80;;;24.10;95.30;;;;;;5065185;28;20225;-81
2023/07/10 04:13:46;;;;;;;9.00;8.03;;;24.10;95.40;;;;;;5065557;28;20176;-75
2023/07/10 04:16:19;;;;;;;10.00;8.90;;;24.00;95.50;;;;;;5046599;28;20450;-75
2023/07/10 04:18:46;;;;;;;8.70;7.87;;;24.10;95.60;;;;;;5065458;28;20861;-80
2023/07/10 04:21:24;;;;;;;8.67;7.87;;;24.10;95.60;;;;;;5049921;28;20792;-80
2023/07/10 04:23:50;;;;;;;186.43;135.87;;;24.10;95.70;;;;;;5050993;28;20718;-81
2023/07/10 04:26:17;;;;;;;14.53;9.77;;;24.00;95.90;;;;;;5054166;28;20491;-75
2023/07/10 04:28:44;;;;;;;10.03;8.63;;;24.10;95.80;;;;;;5067049;28;20939;-75
2023/07/10 04:31:10;;;;;;;10.13;9.23;;;24.10;95.80;;;;;;5064429;28;20460;-76
2023/07/10 04:33:36;;;;;;;8.77;7.93;;;24.20;95.70;;;;;;5049566;28;20435;-80
2023/07/10 04:36:02;;;;;;;9.07;8.03;;;24.20;95.70;;;;;;5048733;28;20588;-81
2023/07/10 04:38:29;;;;;;;8.90;8.10;;;24.20;95.80;;;;;;5053579;28;20509;-75
2023/07/10 04:41:03;;;;;;;8.87;7.97;;;24.20;95.80;;;;;;5068411;28;20497;-81
2023/07/10 04:43:30;;;;;;;11.37;9.07;;;24.30;95.80;;;;;;5051002;28;20405;-81
2023/07/10 04:45:58;;;;;;;13.50;8.80;;;24.30;95.80;;;;;;5060581;28;21015;-75
2023/07/10 04:48:24;;;;;;;11.23;9.10;;;24.30;95.70;;;;;;5048906;28;20913;-81
2023/07/10 04:50:51;;;;;;;9.10;8.30;;;24.40;95.70;;;;;;5062325;28;20478;-80
2023/07/10 04:53:18;;;;;;;13.47;9.00;;;24.50;95.70;;;;;;5068627;28;20444;-81
2023/07/10 04:55:45;;;;;;;9.80;7.87;;;24.60;95.70;;;;;;5066424;28;20985;-81
2023/07/10 04:58:11;;;;;;;12.27;9.10;;;24.60;95.70;;;;;;5058541;28;20474;-80
2023/07/10 05:00:37;;;;;;;10.40;8.87;;;24.70;95.70;;;;;;5051864;28;20727;-76
2023/07/10 05:03:04;;;;;;;38.20;28.60;;;24.70;95.70;;;;;;5029482;28;20895;-81
2023/07/10 05:05:30;;;;;;;11.07;9.73;;;24.80;95.80;;;;;;5030751;28;20469;-82
2023/07/10 05:07:55;;;;;;;12.13;9.10;;;24.90;95.90;;;;;;5029548;28;20424;-81
2023/07/10 05:10:21;;;;;;;10.00;8.37;;;24.90;95.90;;;;;;5060935;28;20200;-75
2023/07/10 05:12:47;;;;;;;11.50;8.40;;;25.00;96.00;;;;;;5066493;28;20192;-76
2023/07/10 05:15:12;;;;;;;11.77;8.97;;;25.00;96.00;;;;;;5058644;28;20292;-75
2023/07/10 05:17:39;;;;;;;14.87;8.93;;;25.10;95.90;;;;;;5051442;28;20601;-82
2023/07/10 05:20:06;;;;;;;10.23;9.00;;;25.10;95.90;;;;;;5048282;28;20816;-82
2023/07/10 05:22:31;;;;;;;11.80;7.70;;;25.20;95.90;;;;;;5067248;28;20496;-82
2023/07/10 05:25:03;;;;;;;10.37;7.83;;;25.20;95.60;;;;;;5067626;28;20537;-81
2023/07/10 05:27:29;;;;;;;16.00;8.57;;;25.30;95.60;;;;;;5060727;28;20192;-81
2023/07/10 05:29:54;;;;;;;8.73;7.87;;;25.30;95.50;;;;;;5059490;28;20428;-75
2023/07/10 05:32:20;;;;;;;10.37;7.70;;;25.40;95.50;;;;;;5067404;28;20235;-82
2023/07/10 05:34:46;;;;;;;11.03;8.07;;;25.50;95.60;;;;;;5067586;28;20281;-80
2023/07/10 05:37:12;;;;;;;9.87;8.10;;;25.60;95.80;;;;;;5067121;28;20204;-83
2023/07/10 05:39:38;;;;;;;9.37;8.23;;;25.60;95.90;;;;;;5048610;28;20494;-76
2023/07/10 05:42:06;;;;;;;9.60;7.30;;;25.70;95.70;;;;;;5048715;28;20436;-82
2023/07/10 05:44:32;;;;;;;9.83;8.07;;;25.70;95.70;;;;;;5049067;28;20497;-76
2023/07/10 05:46:57;;;;;;;11.60;7.87;;;25.80;95.70;;;;;;5066648;28;20548;-76
2023/07/10 05:49:26;;;;;;;9.37;7.17;;;25.90;95.70;;;;;;5049065;28;20263;-75
2023/07/10 05:51:53;;;;;;;9.40;7.73;;;25.90;95.40;;;;;;5047457;28;20533;-75
2023/07/10 05:54:20;;;;;;;10.00;9.00;;;25.90;95.50;;;;;;5040743;28;20489;-81
2023/07/10 05:56:46;;;;;;;89.13;60.40;;;26.00;95.40;;;;;;5051916;28;20469;-75
2023/07/10 05:59:14;;;;;;;12.23;9.70;;;26.10;95.60;;;;;;5055911;28;21943;-74
2023/07/10 06:01:40;;;;;;;11.27;8.37;;;26.10;95.50;;;;;;5059072;28;20430;-81
2023/07/10 06:04:05;;;;;;;10.43;7.87;;;26.20;95.40;;;;;;5059394;28;20502;-81
2023/07/10 06:06:31;;;;;;;9.60;7.73;;;26.30;95.80;;;;;;5046660;28;20205;-81
2023/07/10 06:08:57;;;;;;;10.63;8.73;;;26.40;95.40;;;;;;5064163;28;20181;-81
2023/07/10 06:11:23;;;;;;;11.03;7.87;;;26.40;95.10;;;;;;5061447;28;20205;-75
2023/07/10 06:13:48;;;;;;;8.47;7.67;;;26.40;95.20;;;;;;5046090;28;20232;-80
2023/07/10 06:16:14;;;;;;;8.60;7.77;;;26.50;95.20;;;;;;5060082;28;20255;-74
2023/07/10 06:18:40;;;;;;;9.00;7.90;;;26.60;95.00;;;;;;5044203;28;20225;-82
2023/07/10 06:21:07;;;;;;;9.00;7.87;;;26.60;95.10;;;;;;5053700;28;20480;-81
2023/07/10 06:23:33;;;;;;;10.80;7.83;;;26.70;95.10;;;;;;5058095;28;20957;-81
2023/07/10 06:25:59;;;;;;;11.30;8.80;;;26.80;95.40;;;;;;5059852;28;20461;-75
2023/07/10 06:28:26;;;;;;;7.93;7.20;;;26.90;95.30;;;;;;5033483;28;20466;-75
2023/07/10 06:31:04;;;;;;;8.40;7.50;;;27.00;95.10;;;;;;5051752;28;20473;-75
2023/07/10 06:33:31;;;;;;;8.17;7.37;;;27.10;95.10;;;;;;5063997;28;20562;-75
2023/07/10 06:35:58;;;;;;;11.37;7.90;;;27.10;95.10;;;;;;5055420;28;20465;-75
2023/07/10 06:38:25;;;;;;;8.87;7.97;;;27.20;94.90;;;;;;5040837;28;20484;-81
2023/07/10 06:40:51;;;;;;;9.00;8.10;;;27.20;94.80;;;;;;5039146;28;20970;-80
2023/07/10 06:43:18;;;;;;;9.10;8.17;;;27.30;94.70;;;;;;5048874;28;20434;-81
2023/07/10 06:45:44;;;;;;;7.53;6.83;;;27.50;94.70;;;;;;5051543;28;20547;-75
2023/07/10 06:48:10;;;;;;;9.70;7.27;;;27.50;94.50;;;;;;5050060;28;21098;-82
2023/07/10 06:50:36;;;;;;;8.87;7.90;;;27.50;94.80;;;;;;5042054;28;20522;-82
2023/07/10 06:53:03;;;;;;;9.50;7.50;;;27.60;94.70;;;;;;5044338;28;20785;-81
2023/07/10 06:55:29;;;;;;;9.10;8.20;;;27.70;94.50;;;;;;5049059;28;21186;-82
2023/07/10 06:57:55;;;;;;;7.47;6.63;;;27.80;94.30;;;;;;5040105;28;20466;-82
2023/07/10 07:00:20;;;;;;;8.57;7.77;;;27.90;94.80;;;;;;5036667;28;20291;-75
2023/07/10 07:02:46;;;;;;;10.10;8.63;;;28.00;94.90;;;;;;5060175;28;20189;-80
2023/07/10 07:05:13;;;;;;;13.00;11.60;;;28.20;95.10;;;;;;5057492;28;20881;-81
2023/07/10 07:07:39;;;;;;;8.93;8.03;;;28.30;94.90;;;;;;5055218;28;20217;-81
2023/07/10 07:10:08;;;;;;;8.70;7.33;;;28.40;94.80;;;;;;5049680;28;20502;-75
2023/07/10 07:12:34;;;;;;;10.03;7.73;;;28.60;95.00;;;;;;5049888;28;21008;-75
2023/07/10 07:15:00;;;;;;;9.07;7.57;;;28.70;95.00;;;;;;5056344;28;20450;-81
2023/07/10 07:17:26;;;;;;;8.87;7.23;;;28.80;94.90;;;;;;5056042;28;20768;-81
2023/07/10 07:19:52;;;;;;;8.67;7.33;;;28.90;94.80;;;;;;5052357;28;20980;-75
2023/07/10 07:22:18;;;;;;;12.20;7.57;;;29.00;94.50;;;;;;5059825;28;20684;-82
2023/07/10 07:24:43;;;;;;;9.30;7.40;;;29.10;94.40;;;;;;5054377;28;20205;-82
2023/07/10 07:27:09;;;;;;;7.93;7.23;;;29.20;94.20;;;;;;5053620;28;20195;-82
2023/07/10 07:29:35;;;;;;;8.20;7.40;;;29.20;93.80;;;;;;5047117;28;20480;-81
2023/07/10 07:32:01;;;;;;;7.63;6.87;;;29.30;93.60;;;;;;5050785;28;20520;-81
2023/07/10 07:34:26;;;;;;;8.47;7.67;;;29.30;93.50;;;;;;5049971;28;20261;-75
2023/07/10 07:36:53;;;;;;;9.53;6.87;;;29.40;93.50;;;;;;5047050;28;20654;-82
2023/07/10 07:39:27;;;;;;;9.33;7.33;;;29.60;93.30;;;;;;5049836;28;20185;-80
2023/07/10 07:41:53;;;;;;;11.33;8.13;;;29.70;93.00;;;;;;5051265;28;20432;-76
2023/07/10 07:44:19;;;;;;;7.00;6.30;;;29.80;93.20;;;;;;5043578;28;20443;-82
2023/07/10 07:46:45;;;;;;;7.30;6.60;;;29.90;92.60;;;;;;5049854;28;20431;-75
2023/07/10 07:49:10;;;;;;;7.93;6.50;;;29.90;92.20;;;;;;5055396;28;20286;-75
2023/07/10 07:51:37;;;;;;;7.27;6.60;;;30.00;92.00;;;;;;5027613;28;20215;-75
2023/07/10 07:54:05;;;;;;;6.37;5.77;;;30.10;92.30;;;;;;5044238;28;20262;-82
2023/07/10 07:56:30;;;;;;;7.93;6.43;;;30.20;91.00;;;;;;5048702;28;20547;-82
2023/07/10 07:58:56;;;;;;;11.63;6.30;;;30.30;91.00;;;;;;5043153;28;20560;-75
2023/07/10 08:01:22;;;;;;;6.97;6.27;;;30.30;91.10;;;;;;5033893;28;20387;-75
2023/07/10 08:03:47;;;;;;;6.07;5.43;;;30.40;90.50;;;;;;5043680;28;20471;-75
2023/07/10 08:06:13;;;;;;;188.97;158.33;;;30.50;90.20;;;;;;5027687;28;20211;-75
2023/07/10 08:08:39;;;;;;;8.50;7.40;;;30.50;90.40;;;;;;5034620;28;20188;-82
2023/07/10 08:11:07;;;;;;;9.60;7.23;;;30.60;89.20;;;;;;5047941;28;20510;-75
2023/07/10 08:13:33;;;;;;;7.20;6.47;;;30.80;89.60;;;;;;5050745;28;20633;-75
2023/07/10 08:15:58;;;;;;;6.70;6.20;;;30.90;89.80;;;;;;5056398;28;20959;-75
2023/07/10 08:18:24;;;;;;;6.57;5.97;;;30.90;88.90;;;;;;5042967;28;20550;-81
2023/07/10 08:20:50;;;;;;;6.60;5.90;;;31.00;86.60;;;;;;5049067;28;20209;-75
2023/07/10 08:23:16;;;;;;;6.67;5.27;;;31.10;86.90;;;;;;5022826;28;20219;-75
2023/07/10 08:25:42;;;;;;;5.80;5.30;;;31.20;82.40;;;;;;5046081;28;20703;-82
2023/07/10 08:28:08;;;;;;;6.63;5.77;;;31.30;81.50;;;;;;5045952;28;20532;-82
2023/07/10 08:30:34;;;;;;;7.67;5.90;;;31.40;82.80;;;;;;5048121;28;20780;-82
2023/07/10 08:32:59;;;;;;;6.77;5.60;;;31.50;82.80;;;;;;5047857;28;20244;-82
2023/07/10 08:35:25;;;;;;;6.60;6.00;;;31.60;82.80;;;;;;5036244;28;20453;-78
2023/07/10 08:37:51;;;;;;;31.67;24.97;;;31.60;83.20;;;;;;5049816;28;20245;-81
2023/07/10 08:40:29;;;;;;;7.20;6.50;;;31.70;83.70;;;;;;5051643;28;20773;-82
2023/07/10 08:42:55;;;;;;;7.67;5.80;;;31.80;82.50;;;;;;5031906;28;20188;-82
2023/07/10 08:45:34;;;;;;;5.87;5.37;;;31.90;81.90;;;;;;5049448;28;20522;-82
2023/07/10 08:48:22;;;;;;;7.10;6.17;;;31.90;81.30;;;;;;5056565;28;20682;-82
2023/07/10 08:50:48;;;;;;;8.40;5.90;;;32.00;84.00;;;;;;5044942;28;20973;-82
2023/07/10 08:53:20;;;;;;;6.10;5.30;;;32.10;82.80;;;;;;5051733;28;20429;-81
2023/07/10 08:56:04;;;;;;;6.27;5.57;;;32.10;81.00;;;;;;5046260;28;20234;-75
2023/07/10 08:58:41;;;;;;;6.07;5.47;;;32.20;79.40;;;;;;5046687;28;20949;-75
2023/07/10 09:01:27;;;;;;;6.33;5.73;;;32.20;80.90;;;;;;5049794;28;20760;-82
2023/07/10 09:03:55;;;;;;;5.97;5.30;;;32.40;78.30;;;;;;5049294;28;20433;-82
2023/07/10 09:07:01;;;;;;;7.30;6.20;;;32.40;80.60;;;;;;5045640;28;20492;-82
2023/07/10 09:09:55;;;;;;;6.60;5.87;;;32.50;78.80;;;;;;5050521;28;20438;-75
2023/07/10 09:12:51;;;;;;;5.97;5.37;;;32.60;78.80;;;;;;5056006;28;20438;-76
2023/07/10 09:15:30;;;;;;;8.20;6.00;;;32.60;77.10;;;;;;5040461;28;20442;-75
2023/07/10 09:18:05;;;;;;;7.20;6.47;;;32.70;77.70;;;;;;5055124;28;20461;-82
2023/07/10 09:20:31;;;;;;;6.33;5.70;;;32.70;77.50;;;;;;5052899;28;21024;-82
2023/07/10 09:23:00;;;;;;;8.90;5.03;;;32.80;76.50;;;;;;5032860;28;20515;-83
2023/07/10 09:25:27;;;;;;;5.77;5.27;;;32.80;77.10;;;;;;5047376;28;20202;-76
2023/07/10 09:27:53;;;;;;;6.57;6.07;;;32.90;76.60;;;;;;5054011;28;20428;-83
2023/07/10 09:30:56;;;;;;;5.90;5.50;;;33.00;76.40;;;;;;5050494;28;20450;-83
2023/07/10 09:33:22;;;;;;;10.90;5.70;;;33.10;77.60;;;;;;5058043;28;20597;-76
2023/07/10 09:35:49;;;;;;;9.53;5.60;;;33.10;74.70;;;;;;5034746;28;20500;-83
2023/07/10 09:38:18;;;;;;;6.43;5.83;;;33.20;74.40;;;;;;5060083;28;20496;-77
2023/07/10 09:40:47;;;;;;;5.83;5.30;;;33.30;75.70;;;;;;5052471;28;20515;-76
2023/07/10 09:43:16;;;;;;;111.93;74.93;;;33.40;75.40;;;;;;5055282;28;20438;-76
2023/07/10 09:45:47;;;;;;;6.23;5.73;;;33.40;75.10;;;;;;5056576;28;20457;-83
2023/07/10 09:48:38;;;;;;;7.03;6.40;;;33.40;74.80;;;;;;5044999;28;20414;-83
2023/07/10 09:51:07;;;;;;;5.67;5.17;;;33.50;74.10;;;;;;5041377;28;20462;-83
2023/07/10 09:53:48;;;;;;;7.07;6.33;;;33.60;73.80;;;;;;5052133;28;20475;-76
2023/07/10 09:56:25;;;;;;;7.23;5.97;;;33.60;76.60;;;;;;5044427;28;20470;-76
2023/07/10 09:58:56;;;;;;;5.77;5.23;;;33.60;76.00;;;;;;5035775;28;20518;-76
2023/07/10 10:01:30;;;;;;;8.60;5.77;;;33.60;75.30;;;;;;5049726;28;20470;-77
2023/07/10 10:03:56;;;;;;;6.50;5.40;;;33.60;73.70;;;;;;5037843;28;20434;-82
2023/07/10 10:06:24;;;;;;;6.27;5.77;;;33.60;74.50;;;;;;5040512;28;20465;-76
2023/07/10 10:08:51;;;;;;;6.80;5.40;;;33.60;73.70;;;;;;5030444;28;20422;-82
2023/07/10 10:11:17;;;;;;;12.80;5.50;;;33.80;73.50;;;;;;5058610;28;20473;-77
2023/07/10 10:13:58;;;;;;;5.60;5.10;;;33.80;73.30;;;;;;5041031;28;20722;-76
2023/07/10 10:16:40;;;;;;;16.67;6.97;;;33.90;72.80;;;;;;5060164;28;20503;-76
2023/07/10 10:19:26;;;;;;;8.87;5.67;;;34.00;74.00;;;;;;5053720;28;20458;-83
2023/07/10 10:21:52;;;;;;;6.93;6.20;;;33.80;74.30;;;;;;5056940;28;20525;-76
2023/07/10 10:24:18;;;;;;;5.53;5.03;;;33.80;73.10;;;;;;5054440;28;20528;-76
2023/07/10 10:27:03;;;;;;;6.00;5.50;;;33.90;73.20;;;;;;5053884;28;20188;-83
2023/07/10 10:29:50;;;;;;;6.53;5.93;;;33.90;74.30;;;;;;5057462;28;20196;-76
2023/07/10 10:32:25;;;;;;;6.47;5.97;;;34.00;72.10;;;;;;5051993;28;20516;-76
2023/07/10 10:35:08;;;;;;;6.50;5.90;;;34.00;72.00;;;;;;5037071;28;20510;-82
2023/07/10 10:37:52;;;;;;;6.63;6.13;;;34.10;72.40;;;;;;5051401;28;20469;-76
2023/07/10 10:40:30;;;;;;;7.83;6.10;;;34.00;75.10;;;;;;5050503;28;20445;-76
2023/07/10 10:43:04;;;;;;;7.47;6.20;;;34.10;72.50;;;;;;5048964;28;20669;-82
2023/07/10 10:45:42;;;;;;;7.53;6.17;;;34.10;74.20;;;;;;5055351;28;21004;-82
2023/07/10 10:48:19;;;;;;;6.00;5.43;;;34.10;71.70;;;;;;5044421;28;20440;-77
2023/07/10 10:50:45;;;;;;;8.83;6.20;;;34.20;71.80;;;;;;5053211;28;20875;-79
2023/07/10 10:53:38;;;;;;;7.50;6.00;;;34.20;72.00;;;;;;5039286;28;20525;-80
2023/07/10 10:56:16;;;;;;;7.37;6.67;;;34.30;71.80;;;;;;5047216;28;20210;-79
2023/07/10 10:58:47;;;;;;;6.13;5.57;;;34.30;72.50;;;;;;5052998;28;20519;-78
2023/07/10 11:01:41;;;;;;;5.87;5.37;;;34.20;73.50;;;;;;5034088;28;20467;-78
2023/07/10 11:04:19;;;;;;;8.17;5.60;;;34.20;74.10;;;;;;5046324;28;20421;-78
2023/07/10 11:06:53;;;;;;;5.43;5.03;;;34.20;75.50;;;;;;5053939;28;20437;-77
2023/07/10 11:09:30;;;;;;;6.67;6.07;;;34.20;75.30;;;;;;5047630;28;20482;-77
2023/07/10 11:11:58;;;;;;;6.33;5.87;;;34.10;73.30;;;;;;5045564;28;20472;-80
2023/07/10 11:14:24;;;;;;;7.67;6.57;;;34.10;73.10;;;;;;5032540;28;20418;-76
2023/07/10 11:16:50;;;;;;;7.07;6.43;;;33.90;74.20;;;;;;5048093;28;20438;-76
2023/07/10 11:19:24;;;;;;;8.93;6.37;;;34.00;71.20;;;;;;5049824;28;20826;-83
2023/07/10 11:21:52;;;;;;;7.60;6.03;;;34.10;70.30;;;;;;5032120;28;20441;-77
2023/07/10 11:24:23;;;;;;;5.93;5.40;;;34.20;71.00;;;;;;5045787;28;20790;-77
2023/07/10 11:26:51;;;;;;;8.10;6.50;;;34.30;70.50;;;;;;5056646;28;20437;-80
2023/07/10 11:29:35;;;;;;;7.40;5.97;;;34.30;71.70;;;;;;5047079;28;21102;-79
2023/07/10 11:32:09;;;;;;;7.60;6.10;;;34.10;77.00;;;;;;5051513;28;20499;-79
2023/07/10 11:34:45;;;;;;;7.67;6.10;;;34.20;72.70;;;;;;5031693;28;20458;-80
2023/07/10 11:37:39;;;;;;;7.57;6.03;;;34.00;72.10;;;;;;5051453;28;20495;-76
2023/07/10 11:40:23;;;;;;;7.13;6.43;;;34.20;76.10;;;;;;5038611;28;20533;-76
2023/07/10 11:42:49;;;;;;;6.47;5.37;;;34.20;72.20;;;;;;5051953;28;20444;-78
2023/07/10 11:45:16;;;;;;;8.07;6.40;;;34.30;69.80;;;;;;5058637;28;20526;-75
2023/07/10 11:47:46;;;;;;;6.10;5.60;;;34.40;69.60;;;;;;5055387;28;20571;-77
2023/07/10 11:50:16;;;;;;;5.97;5.57;;;34.40;69.50;;;;;;5023447;28;21212;-79
2023/07/10 11:52:42;;;;;;;8.43;5.63;;;34.40;69.10;;;;;;5029866;28;20442;-77
2023/07/10 11:55:12;;;;;;;6.33;5.60;;;34.50;69.50;;;;;;5049024;28;20539;-77
2023/07/10 11:57:38;;;;;;;7.37;6.43;;;34.60;69.80;;;;;;5048619;28;20552;-78
2023/07/10 12:00:13;;;;;;;6.50;5.80;;;34.50;70.30;;;;;;5029418;28;21011;-83
2023/07/10 12:02:42;;;;;;;9.93;5.50;;;34.70;70.00;;;;;;5047033;28;20656;-83
2023/07/10 12:05:19;;;;;;;7.87;6.00;;;34.80;68.20;;;;;;5045582;28;20657;-77
2023/07/10 12:08:06;;;;;;;6.90;6.23;;;34.80;72.70;;;;;;5028490;28;20832;-76
2023/07/10 12:10:36;;;;;;;6.53;5.93;;;34.90;68.80;;;;;;5023036;28;20462;-78
2023/07/10 12:13:16;;;;;;;6.20;5.60;;;35.00;68.90;;;;;;5029179;28;20440;-76
2023/07/10 12:15:42;;;;;;;6.20;5.63;;;34.90;70.00;;;;;;5044353;28;20737;-84
2023/07/10 12:18:08;;;;;;;6.63;5.87;;;35.00;70.50;;;;;;5030205;28;20462;-77
2023/07/10 12:20:35;;;;;;;6.20;5.70;;;35.00;68.10;;;;;;5031540;28;20324;-81
2023/07/10 12:23:12;;;;;;;6.60;6.10;;;35.10;68.20;;;;;;5025234;28;20434;-82
2023/07/10 12:25:38;;;;;;;6.50;6.00;;;35.20;68.50;;;;;;5037427;28;20453;-77
2023/07/10 12:28:14;;;;;;;7.60;6.90;;;35.20;69.60;;;;;;5027628;28;20433;-81
2023/07/10 12:30:40;;;;;;;6.30;5.90;;;35.20;70.30;;;;;;5048157;28;20205;-76
2023/07/10 12:33:25;;;;;;;7.40;6.70;;;35.20;68.90;;;;;;5043858;28;21272;-77
2023/07/10 12:35:51;;;;;;;7.50;6.80;;;35.20;68.30;;;;;;5037356;28;20649;-76
2023/07/10 12:38:16;;;;;;;7.60;6.90;;;35.20;68.10;;;;;;5047274;28;20480;-77
2023/07/10 12:40:42;;;;;;;10.13;6.70;;;35.10;68.30;;;;;;5050663;28;20205;-81
2023/07/10 12:43:24;;;;;;;6.50;6.00;;;35.10;68.40;;;;;;5048468;28;20185;-76
2023/07/10 12:46:01;;;;;;;10.40;6.13;;;35.00;68.20;;;;;;5050958;28;20618;-81
2023/07/10 12:48:31;;;;;;;15.00;6.50;;;34.80;68.00;;;;;;5036078;28;20856;-75
2023/07/10 12:50:59;;;;;;;7.40;6.30;;;34.70;68.50;;;;;;5031415;28;20550;-75
2023/07/10 12:53:33;;;;;;;7.57;6.60;;;34.60;68.80;;;;;;5030374;28;20430;-75